Berta — V2BQ6 — position and weather

sailwx.info

Track history (hours):
 
Tides and Currents Weather Stations Pressure Air Temp Water Temp Dewpoint Dewpoint Depression Visibility Wind Speed Wind Dir Waves Ship Positions

Berta

Last reported at 2017-Sep-24 12:00 UTC. Time now 2017-Sep-24 12:26 UTC.
Position N 49°45' W 003°31'.

Length 118 m; draft 8.3 m.

Type: Cargo ship. MMSI: 304586000.

Date/timePositionNaut miles runAvg speedWind from/ knotsBaromVisibWave heightAir tempDewpointWater temp
2017-Sep-24 12:00N 49°45' W 003°31'511.1
2017-Sep-24 11:30N 49°48' W 003°24'510.5
2017-Sep-24 11:00N 49°50' W 003°17'510.1
2017-Sep-24 10:30N 49°53' W 003°10'5 9.4
2017-Sep-24 10:00N 49°55' W 003°03'5 9.1
2017-Sep-24 09:30N 49°56' W 002°57'4 8.8
2017-Sep-24 09:00N 49°58' W 002°50'5 8.8
2017-Sep-24 08:29N 49°59' W 002°44'6 9.1
2017-Sep-24 07:51N 50°01' W 002°35'3 9.9
2017-Sep-24 07:30N 50°02' W 002°30'610.5
2017-Sep-24 06:58N 50°02' W 002°21'912.0
2017-Sep-24 06:14N 50°02' W 002°07'413.3
2017-Sep-24 05:54N 50°01' W 002°01'2514.8
2017-Sep-24 04:11N 49°51' W 001°25'716.6
2017-Sep-24 03:46N 49°48' W 001°15'416.3
2017-Sep-24 03:30N 49°47' W 001°09'3513.6
2017-Sep-24 00:56N 49°33' W 000°19'512.0
2017-Sep-24 00:31N 49°31' W 000°12'611.7
2017-Sep-24 00:00N 49°29' W 000°03'511.0
2017-Sep-23 23:30N 49°26' E 000°04'612.4
2017-Sep-23 23:00N 49°26' E 000°14'510.2
2017-Sep-23 22:30N 49°26' E 000°22'4 7.8
2017-Sep-23 22:00N 49°28' E 000°27'3 6.4
2017-Sep-23 21:30N 49°28' E 000°32'5 8.0
2017-Sep-23 20:56N 49°27' E 000°39'84 2.0
2017-Sep-22 01:59N 50°49' E 001°07'510.3
2017-Sep-22 01:30N 50°52' E 001°13'5 9.6
2017-Sep-22 01:00N 50°55' E 001°18'5 9.0
2017-Sep-22 00:30N 50°59' E 001°23'4 9.0
2017-Sep-22 00:00N 51°02' E 001°28'5 9.7
2017-Sep-21 23:30N 51°05' E 001°33'510.5
2017-Sep-21 23:00N 51°09' E 001°39'611.3
2017-Sep-21 22:30N 51°13' E 001°45'612.1
2017-Sep-21 22:00N 51°18' E 001°51'713.0
2017-Sep-21 21:30N 51°23' E 001°57'510.6
2017-Sep-21 21:00N 51°24' E 002°06'611.6
2017-Sep-21 20:30N 51°22' E 002°14'612.1
2017-Sep-21 20:00N 51°22' E 002°24'713.0
2017-Sep-21 19:30N 51°23' E 002°34'612.2
2017-Sep-21 19:00N 51°22' E 002°44'5 9.6
2017-Sep-21 18:30N 51°23' E 002°51'612.4
2017-Sep-21 18:00N 51°24' E 003°01'612.5
2017-Sep-21 17:30N 51°24' E 003°11'713.3
2017-Sep-21 17:00N 51°25' E 003°22'713.6
2017-Sep-21 16:30N 51°26' E 003°32'611.7
2017-Sep-21 16:00N 51°26' E 003°42'613.0
2017-Sep-21 15:30N 51°21' E 003°49'611.4
2017-Sep-21 15:00N 51°24' E 003°57'3 6.7
2017-Sep-21 14:30N 51°25' E 004°02'4 8.0
2017-Sep-21 14:00N 51°22' E 004°07'4 7.8
2017-Sep-21 13:30N 51°23' E 004°13'510.5
2017-Sep-21 13:00N 51°18' E 004°17'3 5.0
2017-Sep-21 12:30N 51°17' E 004°20'0 0.0
2017-Sep-21 11:58N 51°17' E 004°20'0 0.7
2017-Sep-21 11:28N 51°16' E 004°20'0 0.5
2017-Sep-21 10:58N 51°16' E 004°20'1 2.4
2017-Sep-21 10:30N 51°16' E 004°22'1 1.9
2017-Sep-21 09:59N 51°16' E 004°24'0 0.0
2017-Sep-21 09:29N 51°16' E 004°24'0 0.0
2017-Sep-21 08:56N 51°16' E 004°24'0 0.0
2017-Sep-21 08:29N 51°16' E 004°24'0 0.0
2017-Sep-21 07:59N 51°16' E 004°24'0 0.0
2017-Sep-21 07:29N 51°16' E 004°24'0 0.0
2017-Sep-21 06:56N 51°16' E 004°24'0 0.0
2017-Sep-21 06:29N 51°16' E 004°24'0 0.0
2017-Sep-21 05:59N 51°16' E 004°24'0 0.0
2017-Sep-21 05:29N 51°16' E 004°24'0 0.0
2017-Sep-21 04:59N 51°16' E 004°24'0 0.0
2017-Sep-21 04:29N 51°16' E 004°24'0 0.0
2017-Sep-21 03:59N 51°16' E 004°24'0 0.0
2017-Sep-21 03:26N 51°16' E 004°24'0 0.0
2017-Sep-21 02:59N 51°16' E 004°24'0 0.0
2017-Sep-21 02:29N 51°16' E 004°24'0 0.0
2017-Sep-21 01:59N 51°16' E 004°24'0 0.0
2017-Sep-21 01:29N 51°16' E 004°24'0 0.0
2017-Sep-21 00:59N 51°16' E 004°24'0 0.0
2017-Sep-21 00:29N 51°16' E 004°24'0 0.0
2017-Sep-20 23:59N 51°16' E 004°24'0 0.0
2017-Sep-20 23:30N 51°16' E 004°24'0 0.0
2017-Sep-20 22:59N 51°16' E 004°24'0 0.0
2017-Sep-20 22:29N 51°16' E 004°24'0 0.0
2017-Sep-20 21:59N 51°16' E 004°24'0 0.0
2017-Sep-20 21:29N 51°16' E 004°24'0 0.0
2017-Sep-20 20:59N 51°16' E 004°24'0 0.0
2017-Sep-20 20:29N 51°16' E 004°24'0 0.0
2017-Sep-20 19:59N 51°16' E 004°24'0 0.0
2017-Sep-20 19:29N 51°16' E 004°24'0 0.0
2017-Sep-20 18:59N 51°16' E 004°24'0 0.0
2017-Sep-20 18:29N 51°16' E 004°24'0 0.0
2017-Sep-20 17:59N 51°16' E 004°24'0 0.0
2017-Sep-20 17:29N 51°16' E 004°24'0 0.0
2017-Sep-20 16:59N 51°16' E 004°24'0 0.0
2017-Sep-20 16:29N 51°16' E 004°24'0 0.0
2017-Sep-20 15:56N 51°16' E 004°24'0 0.0
2017-Sep-20 15:29N 51°16' E 004°24'0 0.0
2017-Sep-20 14:59N 51°16' E 004°24'0 0.0
2017-Sep-20 13:59N 51°16' E 004°24'0 0.0
2017-Sep-20 13:29N 51°16' E 004°24'0 0.0
2017-Sep-20 12:59N 51°16' E 004°24'0 0.0
2017-Sep-20 12:26N 51°16' E 004°24'0 0.0
2017-Sep-20 11:59N 51°16' E 004°24'0 0.0
2017-Sep-20 11:29N 51°16' E 004°24'0 0.0
2017-Sep-20 10:53N 51°16' E 004°24'0 0.0
2017-Sep-20 10:29N 51°16' E 004°24'0 0.0
2017-Sep-20 09:59N 51°16' E 004°24'0 0.0
2017-Sep-20 09:26N 51°16' E 004°24'0 0.0
2017-Sep-20 08:56N 51°16' E 004°24'0 0.0
2017-Sep-20 08:29N 51°16' E 004°24'0 0.0
2017-Sep-20 07:59N 51°16' E 004°24'0 0.0
2017-Sep-20 07:29N 51°16' E 004°24'0 0.0
2017-Sep-20 06:59N 51°16' E 004°24'0 0.0
2017-Sep-20 06:29N 51°16' E 004°24'0 0.0
2017-Sep-20 05:59N 51°16' E 004°24'0 0.0
2017-Sep-20 05:29N 51°16' E 004°24'0 0.0
2017-Sep-20 04:59N 51°16' E 004°24'0 0.0
2017-Sep-20 04:29N 51°16' E 004°24'0 0.0
2017-Sep-20 03:59N 51°16' E 004°24'0 0.0
2017-Sep-20 03:29N 51°16' E 004°24'0 0.0
2017-Sep-20 02:59N 51°16' E 004°24'0 0.0
2017-Sep-20 02:29N 51°16' E 004°24'0 0.0
2017-Sep-20 01:59N 51°16' E 004°24'0 0.0
2017-Sep-20 01:29N 51°16' E 004°24'0 0.0
2017-Sep-20 00:59N 51°16' E 004°24'0 0.0
2017-Sep-20 00:29N 51°16' E 004°24'0 0.0
2017-Sep-19 23:59N 51°16' E 004°24'0 0.0
2017-Sep-19 23:29N 51°16' E 004°24'0 0.0
2017-Sep-19 22:59N 51°16' E 004°24'0 0.0
2017-Sep-19 22:29N 51°16' E 004°24'0 0.0
2017-Sep-19 21:59N 51°16' E 004°24'0 0.0
2017-Sep-19 21:29N 51°16' E 004°24'0 0.0
2017-Sep-19 20:59N 51°16' E 004°24'0 0.0
2017-Sep-19 20:29N 51°16' E 004°24'0 0.0
2017-Sep-19 19:59N 51°16' E 004°24'0 0.0
2017-Sep-19 19:29N 51°16' E 004°24'0 0.0
2017-Sep-19 18:56N 51°16' E 004°24'0 0.0
2017-Sep-19 18:29N 51°16' E 004°24'0 0.0
2017-Sep-19 17:59N 51°16' E 004°24'0 0.0
2017-Sep-19 17:29N 51°16' E 004°24'0 0.0
2017-Sep-19 16:59N 51°16' E 004°24'0 0.0
2017-Sep-19 16:29N 51°16' E 004°24'0 0.0
2017-Sep-19 15:59N 51°16' E 004°24'0 0.0
2017-Sep-19 15:29N 51°16' E 004°24'0 0.0
2017-Sep-19 14:59N 51°16' E 004°24'0 0.0
2017-Sep-19 14:29N 51°16' E 004°24'0 0.0
2017-Sep-19 13:59N 51°16' E 004°24'0 0.0
2017-Sep-19 13:29N 51°16' E 004°24'0 0.0
2017-Sep-19 12:59N 51°16' E 004°24'0 0.0
2017-Sep-19 12:29N 51°16' E 004°24'0 0.0
2017-Sep-19 11:59N 51°16' E 004°24'0 0.0
2017-Sep-19 11:26N 51°16' E 004°24'0 0.0
2017-Sep-19 10:59N 51°16' E 004°24'0 0.0
2017-Sep-19 10:29N 51°16' E 004°24'0 0.0
2017-Sep-19 09:59N 51°16' E 004°24'0 0.0
2017-Sep-19 09:29N 51°16' E 004°24'0 0.0
2017-Sep-19 08:59N 51°16' E 004°24'0 0.0
2017-Sep-19 08:29N 51°16' E 004°24'0 0.0
2017-Sep-19 07:59N 51°16' E 004°24'0 0.0
2017-Sep-19 07:29N 51°16' E 004°24'0 0.0
2017-Sep-19 06:59N 51°16' E 004°24'0 0.0
2017-Sep-19 06:29N 51°16' E 004°24'0 0.0
2017-Sep-19 05:59N 51°16' E 004°24'0 0.0
2017-Sep-19 05:29N 51°16' E 004°24'0 0.0
2017-Sep-19 04:59N 51°16' E 004°24'0 0.0
2017-Sep-19 04:29N 51°16' E 004°24'0 0.0
2017-Sep-19 03:59N 51°16' E 004°24'0 0.0
2017-Sep-19 03:29N 51°16' E 004°24'0 0.0
2017-Sep-19 02:59N 51°16' E 004°24'0 0.0
2017-Sep-19 02:29N 51°16' E 004°24'0 0.0
2017-Sep-19 01:59N 51°16' E 004°24'0 0.0
2017-Sep-19 01:29N 51°16' E 004°24'0 0.0
2017-Sep-19 00:59N 51°16' E 004°24'0 0.0
2017-Sep-19 00:29N 51°16' E 004°24'0 0.0
2017-Sep-18 23:59N 51°16' E 004°24'0 0.0
2017-Sep-18 23:29N 51°16' E 004°24'0 0.0
2017-Sep-18 22:59N 51°16' E 004°24'0 0.0
2017-Sep-18 22:29N 51°16' E 004°24'0 0.0
2017-Sep-18 21:59N 51°16' E 004°24'0 0.0
2017-Sep-18 21:29N 51°16' E 004°24'0 0.0
2017-Sep-18 20:59N 51°16' E 004°24'0 0.0
2017-Sep-18 20:29N 51°16' E 004°24'0 0.0
2017-Sep-18 19:59N 51°16' E 004°24'0 0.0
2017-Sep-18 19:29N 51°16' E 004°24'0 0.0
2017-Sep-18 18:59N 51°16' E 004°24'0 0.0
2017-Sep-18 18:29N 51°16' E 004°24'0 0.0
2017-Sep-18 17:59N 51°16' E 004°24'0 0.0
2017-Sep-18 17:29N 51°16' E 004°24'0 0.0
2017-Sep-18 16:59N 51°16' E 004°24'0 0.0
2017-Sep-18 16:29N 51°16' E 004°24'0 0.0
2017-Sep-18 15:59N 51°16' E 004°24'0 0.0
2017-Sep-18 15:29N 51°16' E 004°24'0 0.0
2017-Sep-18 14:59N 51°16' E 004°24'0 0.0
2017-Sep-18 14:29N 51°16' E 004°24'0 0.0
2017-Sep-18 13:59N 51°16' E 004°24'0 0.0
2017-Sep-18 13:26N 51°16' E 004°24'0 0.0
2017-Sep-18 12:59N 51°16' E 004°24'0 0.0
2017-Sep-18 12:29N 51°16' E 004°24'0 0.0
2017-Sep-18 11:59N 51°16' E 004°24'0 0.0
2017-Sep-18 11:29N 51°16' E 004°24'0 0.0
2017-Sep-18 10:59N 51°16' E 004°24'0 0.0
2017-Sep-18 10:29N 51°16' E 004°24'0 0.0
2017-Sep-18 09:59N 51°16' E 004°24'0 0.0
2017-Sep-18 09:29N 51°16' E 004°24'0 0.0
2017-Sep-18 08:59N 51°16' E 004°24'0 0.0
2017-Sep-18 08:29N 51°16' E 004°24'0 0.0
2017-Sep-18 07:59N 51°16' E 004°24'0 0.0
2017-Sep-18 07:29N 51°16' E 004°24'0 0.0
2017-Sep-18 06:59N 51°16' E 004°24'0 0.0
2017-Sep-18 06:29N 51°16' E 004°24'0 0.0
2017-Sep-18 05:59N 51°16' E 004°24'0 0.0
2017-Sep-18 05:29N 51°16' E 004°24'0 0.0
2017-Sep-18 04:59N 51°16' E 004°24'0 0.0
2017-Sep-18 04:29N 51°16' E 004°24'0 0.0
2017-Sep-18 03:59N 51°16' E 004°24'0 0.0
2017-Sep-18 03:29N 51°16' E 004°24'0 0.0
2017-Sep-18 02:59N 51°16' E 004°24'0 0.0
2017-Sep-18 02:29N 51°16' E 004°24'0 0.0
2017-Sep-18 01:59N 51°16' E 004°24'0 0.0
2017-Sep-18 01:29N 51°16' E 004°24'0 0.0
2017-Sep-18 00:59N 51°16' E 004°24'0 0.0
2017-Sep-18 00:29N 51°16' E 004°24'0 0.0
2017-Sep-17 23:59N 51°16' E 004°24'0 0.0
2017-Sep-17 23:29N 51°16' E 004°24'0 0.0
2017-Sep-17 22:59N 51°16' E 004°24'0 0.0
2017-Sep-17 22:29N 51°16' E 004°24'0 0.0
2017-Sep-17 21:59N 51°16' E 004°24'0 0.0
2017-Sep-17 21:29N 51°16' E 004°24'0 0.0
2017-Sep-17 20:59N 51°16' E 004°24'0 0.0
2017-Sep-17 20:29N 51°16' E 004°24'0 0.0
2017-Sep-17 19:59N 51°16' E 004°24'0 0.0
2017-Sep-17 19:29N 51°16' E 004°24'0 0.0
2017-Sep-17 18:59N 51°16' E 004°24'0 0.0
2017-Sep-17 18:29N 51°16' E 004°24'0 0.0
2017-Sep-17 17:59N 51°16' E 004°24'0 0.0
2017-Sep-17 17:29N 51°16' E 004°24'0 0.0
2017-Sep-17 16:59N 51°16' E 004°24'0 0.0
2017-Sep-17 16:29N 51°16' E 004°24'0 0.0
2017-Sep-17 15:59N 51°16' E 004°24'0 0.0
2017-Sep-17 15:29N 51°16' E 004°24'0 0.0
2017-Sep-17 14:59N 51°16' E 004°24'0 0.0
2017-Sep-17 14:29N 51°16' E 004°24'0 0.0
2017-Sep-17 13:59N 51°16' E 004°24'0 0.0
2017-Sep-17 13:29N 51°16' E 004°24'0 0.0
2017-Sep-17 12:59N 51°16' E 004°24'0 0.0
2017-Sep-17 12:29N 51°16' E 004°24'0 0.0
2017-Sep-17 11:59N 51°16' E 004°24'0 0.0
2017-Sep-17 11:29N 51°16' E 004°24'0 0.0
2017-Sep-17 10:59N 51°16' E 004°24'0 0.0
2017-Sep-17 10:29N 51°16' E 004°24'0 0.0
2017-Sep-17 09:59N 51°16' E 004°24'0 0.0
2017-Sep-17 09:29N 51°16' E 004°24'0 0.0
2017-Sep-17 08:59N 51°16' E 004°24'0 0.0
2017-Sep-17 08:29N 51°16' E 004°24'0 0.0
2017-Sep-17 07:59N 51°16' E 004°24'0 0.0
2017-Sep-17 07:29N 51°16' E 004°24'0 0.0
2017-Sep-17 06:59N 51°16' E 004°24'0 0.0
2017-Sep-17 06:29N 51°16' E 004°24'0 0.0
2017-Sep-17 05:59N 51°16' E 004°24'0 0.0
2017-Sep-17 05:29N 51°16' E 004°24'0 0.0
2017-Sep-17 04:59N 51°16' E 004°24'0 0.0
2017-Sep-17 04:29N 51°16' E 004°24'0 0.0
2017-Sep-17 03:59N 51°16' E 004°24'0 0.0
2017-Sep-17 03:29N 51°16' E 004°24'0 0.0
2017-Sep-17 02:59N 51°16' E 004°24'0 0.0
2017-Sep-17 02:29N 51°16' E 004°24'0 0.0
2017-Sep-17 01:59N 51°16' E 004°24'0 0.0
2017-Sep-17 01:29N 51°16' E 004°24'0 0.0
2017-Sep-17 00:59N 51°16' E 004°24'0 0.0
2017-Sep-17 00:29N 51°16' E 004°24'0 0.0
2017-Sep-16 23:59N 51°16' E 004°24'0 0.0
2017-Sep-16 23:29N 51°16' E 004°24'0 0.0
2017-Sep-16 22:59N 51°16' E 004°24'0 0.0
2017-Sep-16 22:29N 51°16' E 004°24'0 0.0
2017-Sep-16 21:59N 51°16' E 004°24'0 0.0
2017-Sep-16 21:29N 51°16' E 004°24'0 0.0
2017-Sep-16 20:59N 51°16' E 004°24'0 0.0
2017-Sep-16 20:29N 51°16' E 004°24'0 0.0
2017-Sep-16 19:59N 51°16' E 004°24'0 0.0
2017-Sep-16 19:29N 51°16' E 004°24'0 0.0
2017-Sep-16 18:59N 51°16' E 004°24'0 0.0
2017-Sep-16 18:29N 51°16' E 004°24'0 0.0
2017-Sep-16 17:59N 51°16' E 004°24'0 0.0
2017-Sep-16 17:29N 51°16' E 004°24'0 0.0
2017-Sep-16 16:59N 51°16' E 004°24'0 0.0
2017-Sep-16 16:29N 51°16' E 004°24'0 0.0
2017-Sep-16 15:59N 51°16' E 004°24'0 0.0
2017-Sep-16 15:29N 51°16' E 004°24'0 0.0
2017-Sep-16 14:59N 51°16' E 004°24'0 0.0
2017-Sep-16 14:29N 51°16' E 004°24'0 0.0
2017-Sep-16 13:59N 51°16' E 004°24'0 0.0
2017-Sep-16 13:29N 51°16' E 004°24'0 0.0
2017-Sep-16 12:59N 51°16' E 004°24'0 0.0
2017-Sep-16 12:29N 51°16' E 004°24'0 0.0
2017-Sep-16 11:59N 51°16' E 004°24'0 0.0
2017-Sep-16 11:29N 51°16' E 004°24'0 0.0
2017-Sep-16 10:59N 51°16' E 004°24'0 0.0
2017-Sep-16 10:29N 51°16' E 004°24'0 0.0
2017-Sep-16 09:59N 51°16' E 004°24'0 0.0
2017-Sep-16 09:29N 51°16' E 004°24'0 0.0
2017-Sep-16 08:59N 51°16' E 004°24'0 0.0
2017-Sep-16 08:29N 51°16' E 004°24'0 0.0
2017-Sep-16 07:59N 51°16' E 004°24'0 0.0
2017-Sep-16 07:29N 51°16' E 004°24'0 0.0
2017-Sep-16 06:59N 51°16' E 004°24'0 0.0
2017-Sep-16 06:29N 51°16' E 004°24'0 0.0
2017-Sep-16 05:59N 51°16' E 004°24'0 0.0
2017-Sep-16 05:29N 51°16' E 004°24'0 0.2
2017-Sep-16 05:00N 51°16' E 004°23'2 4.6
2017-Sep-16 04:31N 51°17' E 004°20'4 7.9
2017-Sep-16 04:01N 51°21' E 004°18'0 0.7
2017-Sep-16 03:31N 51°21' E 004°17'0 0.1
2017-Sep-16 03:00N 51°21' E 004°17'3 6.2
2017-Sep-16 02:30N 51°22' E 004°13'4 8.1
2017-Sep-16 02:00N 51°22' E 004°07'5 9.2
2017-Sep-16 01:30N 51°26' E 004°01'5 9.1
2017-Sep-16 01:00N 51°23' E 003°56'510.5
2017-Sep-16 00:30N 51°21' E 003°48'611.1
2017-Sep-16 00:00N 51°24' E 003°41'510.0
2017-Sep-15 23:30N 51°26' E 003°34'510.0
2017-Sep-15 23:00N 51°30' E 003°28'510.5
2017-Sep-15 22:30N 51°35' E 003°24'611.8
2017-Sep-15 22:00N 51°40' E 003°19'610.4
2017-Sep-15 21:28N 51°45' E 003°15'5 9.4
2017-Sep-15 20:55N 51°49' E 003°20'2 5.3
2017-Sep-15 20:28N 51°50' E 003°24'0 0.0
2017-Sep-15 12:37N 51°50' E 003°24'0 0.1
2017-Sep-15 12:28N 51°50' E 003°24'0 0.0
2017-Sep-15 11:57N 51°50' E 003°24'0 0.0
2017-Sep-15 11:28N 51°50' E 003°24'0 0.0
2017-Sep-15 10:53N 51°50' E 003°24'0 0.0
2017-Sep-15 10:30N 51°50' E 003°24'0 0.0
2017-Sep-15 09:59N 51°50' E 003°24'0 0.0
2017-Sep-15 09:24N 51°50' E 003°24'0 0.0
2017-Sep-15 09:00N 51°50' E 003°24'0 0.0
2017-Sep-15 08:28N 51°50' E 003°24'0 0.1
2017-Sep-15 07:59N 51°50' E 003°24'0 0.0
2017-Sep-15 07:30N 51°50' E 003°24'0 0.1
2017-Sep-15 05:14N 51°50' E 003°24'0 0.1
2017-Sep-15 04:58N 51°50' E 003°24'0 0.0
2017-Sep-15 04:30N 51°50' E 003°24'0 0.0
2017-Sep-15 03:58N 51°50' E 003°24'0 0.0
2017-Sep-15 03:30N 51°50' E 003°24'0 0.0
2017-Sep-15 03:00N 51°50' E 003°24'0 0.0
2017-Sep-15 02:30N 51°50' E 003°24'0 0.0
2017-Sep-15 02:00N 51°50' E 003°24'0 0.0
2017-Sep-15 01:30N 51°50' E 003°24'0 0.1
2017-Sep-15 00:57N 51°50' E 003°24'1 2.2
2017-Sep-15 00:30N 51°50' E 003°23'5 7.5
2017-Sep-14 23:50N 51°55' E 003°19'412.2
2017-Sep-14 23:29N 51°59' E 003°19'1010.1
2017-Sep-14 22:28N 52°03' E 003°34'511.0
2017-Sep-14 22:00N 52°04' E 003°43'510.5
2017-Sep-14 21:30N 52°03' E 003°51'5 9.9
2017-Sep-14 21:01N 52°01' E 003°58'510.1
2017-Sep-14 20:31N 51°59' E 004°05'2 2.7
2017-Sep-14 19:56N 51°58' E 004°03'0 0.0
2017-Sep-14 19:29N 51°58' E 004°03'0 0.0
2017-Sep-14 18:59N 51°58' E 004°03'0 0.0
2017-Sep-14 18:29N 51°58' E 004°03'0 0.0
2017-Sep-14 17:59N 51°58' E 004°03'0 0.0
2017-Sep-14 17:29N 51°58' E 004°03'0 0.0
2017-Sep-14 16:59N 51°58' E 004°03'0 0.0
2017-Sep-14 16:29N 51°58' E 004°03'0 0.0
2017-Sep-14 15:59N 51°58' E 004°03'0 0.0
2017-Sep-14 15:29N 51°58' E 004°03'0 0.0
2017-Sep-14 14:59N 51°58' E 004°03'0 0.0
2017-Sep-14 14:29N 51°58' E 004°03'0 0.0
2017-Sep-14 13:59N 51°58' E 004°03'0 0.0
2017-Sep-14 13:29N 51°58' E 004°03'0 0.0
2017-Sep-14 13:01N 51°58' E 004°03'0 0.0
2017-Sep-14 12:31N 51°58' E 004°03'0 0.0
2017-Sep-14 12:01N 51°58' E 004°03'  
Track history (hours):
 
Tides and Currents Weather Stations Pressure Air Temp Water Temp Dewpoint Dewpoint Depression Visibility Wind Speed Wind Dir Waves Ship Positions

Berta

Last reported at 2017-Sep-24 12:00 UTC. Time now 2017-Sep-24 12:26 UTC.
Position N 49°45' W 003°31'.

Length 118 m; draft 8.3 m.

Type: Cargo ship. MMSI: 304586000.

Date/timePositionNaut miles runAvg speedWind from/ knotsBaromVisibWave heightAir tempDewpointWater temp
2017-Sep-24 12:00N 49°45' W 003°31'511.1
2017-Sep-24 11:30N 49°48' W 003°24'510.5
2017-Sep-24 11:00N 49°50' W 003°17'510.1
2017-Sep-24 10:30N 49°53' W 003°10'5 9.4
2017-Sep-24 10:00N 49°55' W 003°03'5 9.1
2017-Sep-24 09:30N 49°56' W 002°57'4 8.8
2017-Sep-24 09:00N 49°58' W 002°50'5 8.8
2017-Sep-24 08:29N 49°59' W 002°44'6 9.1
2017-Sep-24 07:51N 50°01' W 002°35'3 9.9
2017-Sep-24 07:30N 50°02' W 002°30'610.5
2017-Sep-24 06:58N 50°02' W 002°21'912.0
2017-Sep-24 06:14N 50°02' W 002°07'413.3
2017-Sep-24 05:54N 50°01' W 002°01'2514.8
2017-Sep-24 04:11N 49°51' W 001°25'716.6
2017-Sep-24 03:46N 49°48' W 001°15'416.3
2017-Sep-24 03:30N 49°47' W 001°09'3513.6
2017-Sep-24 00:56N 49°33' W 000°19'512.0
2017-Sep-24 00:31N 49°31' W 000°12'611.7
2017-Sep-24 00:00N 49°29' W 000°03'511.0
2017-Sep-23 23:30N 49°26' E 000°04'612.4
2017-Sep-23 23:00N 49°26' E 000°14'510.2
2017-Sep-23 22:30N 49°26' E 000°22'4 7.8
2017-Sep-23 22:00N 49°28' E 000°27'3 6.4
2017-Sep-23 21:30N 49°28' E 000°32'5 8.0
2017-Sep-23 20:56N 49°27' E 000°39'84 2.0
2017-Sep-22 01:59N 50°49' E 001°07'510.3
2017-Sep-22 01:30N 50°52' E 001°13'5 9.6
2017-Sep-22 01:00N 50°55' E 001°18'5 9.0
2017-Sep-22 00:30N 50°59' E 001°23'4 9.0
2017-Sep-22 00:00N 51°02' E 001°28'5 9.7
2017-Sep-21 23:30N 51°05' E 001°33'510.5
2017-Sep-21 23:00N 51°09' E 001°39'611.3
2017-Sep-21 22:30N 51°13' E 001°45'612.1
2017-Sep-21 22:00N 51°18' E 001°51'713.0
2017-Sep-21 21:30N 51°23' E 001°57'510.6
2017-Sep-21 21:00N 51°24' E 002°06'611.6
2017-Sep-21 20:30N 51°22' E 002°14'612.1
2017-Sep-21 20:00N 51°22' E 002°24'713.0
2017-Sep-21 19:30N 51°23' E 002°34'612.2
2017-Sep-21 19:00N 51°22' E 002°44'5 9.6
2017-Sep-21 18:30N 51°23' E 002°51'612.4
2017-Sep-21 18:00N 51°24' E 003°01'612.5
2017-Sep-21 17:30N 51°24' E 003°11'713.3
2017-Sep-21 17:00N 51°25' E 003°22'713.6
2017-Sep-21 16:30N 51°26' E 003°32'611.7
2017-Sep-21 16:00N 51°26' E 003°42'613.0
2017-Sep-21 15:30N 51°21' E 003°49'611.4
2017-Sep-21 15:00N 51°24' E 003°57'3 6.7
2017-Sep-21 14:30N 51°25' E 004°02'4 8.0
2017-Sep-21 14:00N 51°22' E 004°07'4 7.8
2017-Sep-21 13:30N 51°23' E 004°13'510.5
2017-Sep-21 13:00N 51°18' E 004°17'3 5.0
2017-Sep-21 12:30N 51°17' E 004°20'0 0.0
2017-Sep-21 11:58N 51°17' E 004°20'0 0.7
2017-Sep-21 11:28N 51°16' E 004°20'0 0.5
2017-Sep-21 10:58N 51°16' E 004°20'1 2.4
2017-Sep-21 10:30N 51°16' E 004°22'1 1.9
2017-Sep-21 09:59N 51°16' E 004°24'0 0.0
2017-Sep-21 09:29N 51°16' E 004°24'0 0.0
2017-Sep-21 08:56N 51°16' E 004°24'0 0.0
2017-Sep-21 08:29N 51°16' E 004°24'0 0.0
2017-Sep-21 07:59N 51°16' E 004°24'0 0.0
2017-Sep-21 07:29N 51°16' E 004°24'0 0.0
2017-Sep-21 06:56N 51°16' E 004°24'0 0.0
2017-Sep-21 06:29N 51°16' E 004°24'0 0.0
2017-Sep-21 05:59N 51°16' E 004°24'0 0.0
2017-Sep-21 05:29N 51°16' E 004°24'0 0.0
2017-Sep-21 04:59N 51°16' E 004°24'0 0.0
2017-Sep-21 04:29N 51°16' E 004°24'0 0.0
2017-Sep-21 03:59N 51°16' E 004°24'0 0.0
2017-Sep-21 03:26N 51°16' E 004°24'0 0.0
2017-Sep-21 02:59N 51°16' E 004°24'0 0.0
2017-Sep-21 02:29N 51°16' E 004°24'0 0.0
2017-Sep-21 01:59N 51°16' E 004°24'0 0.0
2017-Sep-21 01:29N 51°16' E 004°24'0 0.0
2017-Sep-21 00:59N 51°16' E 004°24'0 0.0
2017-Sep-21 00:29N 51°16' E 004°24'0 0.0
2017-Sep-20 23:59N 51°16' E 004°24'0 0.0
2017-Sep-20 23:30N 51°16' E 004°24'0 0.0
2017-Sep-20 22:59N 51°16' E 004°24'0 0.0
2017-Sep-20 22:29N 51°16' E 004°24'0 0.0
2017-Sep-20 21:59N 51°16' E 004°24'0 0.0
2017-Sep-20 21:29N 51°16' E 004°24'0 0.0
2017-Sep-20 20:59N 51°16' E 004°24'0 0.0
2017-Sep-20 20:29N 51°16' E 004°24'0 0.0
2017-Sep-20 19:59N 51°16' E 004°24'0 0.0
2017-Sep-20 19:29N 51°16' E 004°24'0 0.0
2017-Sep-20 18:59N 51°16' E 004°24'0 0.0
2017-Sep-20 18:29N 51°16' E 004°24'0 0.0
2017-Sep-20 17:59N 51°16' E 004°24'0 0.0
2017-Sep-20 17:29N 51°16' E 004°24'0 0.0
2017-Sep-20 16:59N 51°16' E 004°24'0 0.0
2017-Sep-20 16:29N 51°16' E 004°24'0 0.0
2017-Sep-20 15:56N 51°16' E 004°24'0 0.0
2017-Sep-20 15:29N 51°16' E 004°24'0 0.0
2017-Sep-20 14:59N 51°16' E 004°24'0 0.0
2017-Sep-20 13:59N 51°16' E 004°24'0 0.0
2017-Sep-20 13:29N 51°16' E 004°24'0 0.0
2017-Sep-20 12:59N 51°16' E 004°24'0 0.0
2017-Sep-20 12:26N 51°16' E 004°24'0 0.0
2017-Sep-20 11:59N 51°16' E 004°24'0 0.0
2017-Sep-20 11:29N 51°16' E 004°24'0 0.0
2017-Sep-20 10:53N 51°16' E 004°24'0 0.0
2017-Sep-20 10:29N 51°16' E 004°24'0 0.0
2017-Sep-20 09:59N 51°16' E 004°24'0 0.0
2017-Sep-20 09:26N 51°16' E 004°24'0 0.0
2017-Sep-20 08:56N 51°16' E 004°24'0 0.0
2017-Sep-20 08:29N 51°16' E 004°24'0 0.0
2017-Sep-20 07:59N 51°16' E 004°24'0 0.0
2017-Sep-20 07:29N 51°16' E 004°24'0 0.0
2017-Sep-20 06:59N 51°16' E 004°24'0 0.0
2017-Sep-20 06:29N 51°16' E 004°24'0 0.0
2017-Sep-20 05:59N 51°16' E 004°24'0 0.0
2017-Sep-20 05:29N 51°16' E 004°24'0 0.0
2017-Sep-20 04:59N 51°16' E 004°24'0 0.0
2017-Sep-20 04:29N 51°16' E 004°24'0 0.0
2017-Sep-20 03:59N 51°16' E 004°24'0 0.0
2017-Sep-20 03:29N 51°16' E 004°24'0 0.0
2017-Sep-20 02:59N 51°16' E 004°24'0 0.0
2017-Sep-20 02:29N 51°16' E 004°24'0 0.0
2017-Sep-20 01:59N 51°16' E 004°24'0 0.0
2017-Sep-20 01:29N 51°16' E 004°24'0 0.0
2017-Sep-20 00:59N 51°16' E 004°24'0 0.0
2017-Sep-20 00:29N 51°16' E 004°24'0 0.0
2017-Sep-19 23:59N 51°16' E 004°24'0 0.0
2017-Sep-19 23:29N 51°16' E 004°24'0 0.0
2017-Sep-19 22:59N 51°16' E 004°24'0 0.0
2017-Sep-19 22:29N 51°16' E 004°24'0 0.0
2017-Sep-19 21:59N 51°16' E 004°24'0 0.0
2017-Sep-19 21:29N 51°16' E 004°24'0 0.0
2017-Sep-19 20:59N 51°16' E 004°24'0 0.0
2017-Sep-19 20:29N 51°16' E 004°24'0 0.0
2017-Sep-19 19:59N 51°16' E 004°24'0 0.0
2017-Sep-19 19:29N 51°16' E 004°24'0 0.0
2017-Sep-19 18:56N 51°16' E 004°24'0 0.0
2017-Sep-19 18:29N 51°16' E 004°24'0 0.0
2017-Sep-19 17:59N 51°16' E 004°24'0 0.0
2017-Sep-19 17:29N 51°16' E 004°24'0 0.0
2017-Sep-19 16:59N 51°16' E 004°24'0 0.0
2017-Sep-19 16:29N 51°16' E 004°24'0 0.0
2017-Sep-19 15:59N 51°16' E 004°24'0 0.0
2017-Sep-19 15:29N 51°16' E 004°24'0 0.0
2017-Sep-19 14:59N 51°16' E 004°24'0 0.0
2017-Sep-19 14:29N 51°16' E 004°24'0 0.0
2017-Sep-19 13:59N 51°16' E 004°24'0 0.0
2017-Sep-19 13:29N 51°16' E 004°24'0 0.0
2017-Sep-19 12:59N 51°16' E 004°24'0 0.0
2017-Sep-19 12:29N 51°16' E 004°24'0 0.0
2017-Sep-19 11:59N 51°16' E 004°24'0 0.0
2017-Sep-19 11:26N 51°16' E 004°24'0 0.0
2017-Sep-19 10:59N 51°16' E 004°24'0 0.0
2017-Sep-19 10:29N 51°16' E 004°24'0 0.0
2017-Sep-19 09:59N 51°16' E 004°24'0 0.0
2017-Sep-19 09:29N 51°16' E 004°24'0 0.0
2017-Sep-19 08:59N 51°16' E 004°24'0 0.0
2017-Sep-19 08:29N 51°16' E 004°24'0 0.0
2017-Sep-19 07:59N 51°16' E 004°24'0 0.0
2017-Sep-19 07:29N 51°16' E 004°24'0 0.0
2017-Sep-19 06:59N 51°16' E 004°24'0 0.0
2017-Sep-19 06:29N 51°16' E 004°24'0 0.0
2017-Sep-19 05:59N 51°16' E 004°24'0 0.0
2017-Sep-19 05:29N 51°16' E 004°24'0 0.0
2017-Sep-19 04:59N 51°16' E 004°24'0 0.0
2017-Sep-19 04:29N 51°16' E 004°24'0 0.0
2017-Sep-19 03:59N 51°16' E 004°24'0 0.0
2017-Sep-19 03:29N 51°16' E 004°24'0 0.0
2017-Sep-19 02:59N 51°16' E 004°24'0 0.0
2017-Sep-19 02:29N 51°16' E 004°24'0 0.0
2017-Sep-19 01:59N 51°16' E 004°24'0 0.0
2017-Sep-19 01:29N 51°16' E 004°24'0 0.0
2017-Sep-19 00:59N 51°16' E 004°24'0 0.0
2017-Sep-19 00:29N 51°16' E 004°24'0 0.0
2017-Sep-18 23:59N 51°16' E 004°24'0 0.0
2017-Sep-18 23:29N 51°16' E 004°24'0 0.0
2017-Sep-18 22:59N 51°16' E 004°24'0 0.0
2017-Sep-18 22:29N 51°16' E 004°24'0 0.0
2017-Sep-18 21:59N 51°16' E 004°24'0 0.0
2017-Sep-18 21:29N 51°16' E 004°24'0 0.0
2017-Sep-18 20:59N 51°16' E 004°24'0 0.0
2017-Sep-18 20:29N 51°16' E 004°24'0 0.0
2017-Sep-18 19:59N 51°16' E 004°24'0 0.0
2017-Sep-18 19:29N 51°16' E 004°24'0 0.0
2017-Sep-18 18:59N 51°16' E 004°24'0 0.0
2017-Sep-18 18:29N 51°16' E 004°24'0 0.0
2017-Sep-18 17:59N 51°16' E 004°24'0 0.0
2017-Sep-18 17:29N 51°16' E 004°24'0 0.0
2017-Sep-18 16:59N 51°16' E 004°24'0 0.0
2017-Sep-18 16:29N 51°16' E 004°24'0 0.0
2017-Sep-18 15:59N 51°16' E 004°24'0 0.0
2017-Sep-18 15:29N 51°16' E 004°24'0 0.0
2017-Sep-18 14:59N 51°16' E 004°24'0 0.0
2017-Sep-18 14:29N 51°16' E 004°24'0 0.0
2017-Sep-18 13:59N 51°16' E 004°24'0 0.0
2017-Sep-18 13:26N 51°16' E 004°24'0 0.0
2017-Sep-18 12:59N 51°16' E 004°24'0 0.0
2017-Sep-18 12:29N 51°16' E 004°24'0 0.0
2017-Sep-18 11:59N 51°16' E 004°24'0 0.0
2017-Sep-18 11:29N 51°16' E 004°24'0 0.0
2017-Sep-18 10:59N 51°16' E 004°24'0 0.0
2017-Sep-18 10:29N 51°16' E 004°24'0 0.0
2017-Sep-18 09:59N 51°16' E 004°24'0 0.0
2017-Sep-18 09:29N 51°16' E 004°24'0 0.0
2017-Sep-18 08:59N 51°16' E 004°24'0 0.0
2017-Sep-18 08:29N 51°16' E 004°24'0 0.0
2017-Sep-18 07:59N 51°16' E 004°24'0 0.0
2017-Sep-18 07:29N 51°16' E 004°24'0 0.0
2017-Sep-18 06:59N 51°16' E 004°24'0 0.0
2017-Sep-18 06:29N 51°16' E 004°24'0 0.0
2017-Sep-18 05:59N 51°16' E 004°24'0 0.0
2017-Sep-18 05:29N 51°16' E 004°24'0 0.0
2017-Sep-18 04:59N 51°16' E 004°24'0 0.0
2017-Sep-18 04:29N 51°16' E 004°24'0 0.0
2017-Sep-18 03:59N 51°16' E 004°24'0 0.0
2017-Sep-18 03:29N 51°16' E 004°24'0 0.0
2017-Sep-18 02:59N 51°16' E 004°24'0 0.0
2017-Sep-18 02:29N 51°16' E 004°24'0 0.0
2017-Sep-18 01:59N 51°16' E 004°24'0 0.0
2017-Sep-18 01:29N 51°16' E 004°24'0 0.0
2017-Sep-18 00:59N 51°16' E 004°24'0 0.0
2017-Sep-18 00:29N 51°16' E 004°24'0 0.0
2017-Sep-17 23:59N 51°16' E 004°24'0 0.0
2017-Sep-17 23:29N 51°16' E 004°24'0 0.0
2017-Sep-17 22:59N 51°16' E 004°24'0 0.0
2017-Sep-17 22:29N 51°16' E 004°24'0 0.0
2017-Sep-17 21:59N 51°16' E 004°24'0 0.0
2017-Sep-17 21:29N 51°16' E 004°24'0 0.0
2017-Sep-17 20:59N 51°16' E 004°24'0 0.0
2017-Sep-17 20:29N 51°16' E 004°24'0 0.0
2017-Sep-17 19:59N 51°16' E 004°24'0 0.0
2017-Sep-17 19:29N 51°16' E 004°24'0 0.0
2017-Sep-17 18:59N 51°16' E 004°24'0 0.0
2017-Sep-17 18:29N 51°16' E 004°24'0 0.0
2017-Sep-17 17:59N 51°16' E 004°24'0 0.0
2017-Sep-17 17:29N 51°16' E 004°24'0 0.0
2017-Sep-17 16:59N 51°16' E 004°24'0 0.0
2017-Sep-17 16:29N 51°16' E 004°24'0 0.0
2017-Sep-17 15:59N 51°16' E 004°24'0 0.0
2017-Sep-17 15:29N 51°16' E 004°24'0 0.0
2017-Sep-17 14:59N 51°16' E 004°24'0 0.0
2017-Sep-17 14:29N 51°16' E 004°24'0 0.0
2017-Sep-17 13:59N 51°16' E 004°24'0 0.0
2017-Sep-17 13:29N 51°16' E 004°24'0 0.0
2017-Sep-17 12:59N 51°16' E 004°24'0 0.0
2017-Sep-17 12:29N 51°16' E 004°24'0 0.0
2017-Sep-17 11:59N 51°16' E 004°24'0 0.0
2017-Sep-17 11:29N 51°16' E 004°24'0 0.0
2017-Sep-17 10:59N 51°16' E 004°24'0 0.0
2017-Sep-17 10:29N 51°16' E 004°24'0 0.0
2017-Sep-17 09:59N 51°16' E 004°24'0 0.0
2017-Sep-17 09:29N 51°16' E 004°24'0 0.0
2017-Sep-17 08:59N 51°16' E 004°24'0 0.0
2017-Sep-17 08:29N 51°16' E 004°24'0 0.0
2017-Sep-17 07:59N 51°16' E 004°24'0 0.0
2017-Sep-17 07:29N 51°16' E 004°24'0 0.0
2017-Sep-17 06:59N 51°16' E 004°24'0 0.0
2017-Sep-17 06:29N 51°16' E 004°24'0 0.0
2017-Sep-17 05:59N 51°16' E 004°24'0 0.0
2017-Sep-17 05:29N 51°16' E 004°24'0 0.0
2017-Sep-17 04:59N 51°16' E 004°24'0 0.0
2017-Sep-17 04:29N 51°16' E 004°24'0 0.0
2017-Sep-17 03:59N 51°16' E 004°24'0 0.0
2017-Sep-17 03:29N 51°16' E 004°24'0 0.0
2017-Sep-17 02:59N 51°16' E 004°24'0 0.0
2017-Sep-17 02:29N 51°16' E 004°24'0 0.0
2017-Sep-17 01:59N 51°16' E 004°24'0 0.0
2017-Sep-17 01:29N 51°16' E 004°24'0 0.0
2017-Sep-17 00:59N 51°16' E 004°24'0 0.0
2017-Sep-17 00:29N 51°16' E 004°24'0 0.0
2017-Sep-16 23:59N 51°16' E 004°24'0 0.0
2017-Sep-16 23:29N 51°16' E 004°24'0 0.0
2017-Sep-16 22:59N 51°16' E 004°24'0 0.0
2017-Sep-16 22:29N 51°16' E 004°24'0 0.0
2017-Sep-16 21:59N 51°16' E 004°24'0 0.0
2017-Sep-16 21:29N 51°16' E 004°24'0 0.0
2017-Sep-16 20:59N 51°16' E 004°24'0 0.0
2017-Sep-16 20:29N 51°16' E 004°24'0 0.0
2017-Sep-16 19:59N 51°16' E 004°24'0 0.0
2017-Sep-16 19:29N 51°16' E 004°24'0 0.0
2017-Sep-16 18:59N 51°16' E 004°24'0 0.0
2017-Sep-16 18:29N 51°16' E 004°24'0 0.0
2017-Sep-16 17:59N 51°16' E 004°24'0 0.0
2017-Sep-16 17:29N 51°16' E 004°24'0 0.0
2017-Sep-16 16:59N 51°16' E 004°24'0 0.0
2017-Sep-16 16:29N 51°16' E 004°24'0 0.0
2017-Sep-16 15:59N 51°16' E 004°24'0 0.0
2017-Sep-16 15:29N 51°16' E 004°24'0 0.0
2017-Sep-16 14:59N 51°16' E 004°24'0 0.0
2017-Sep-16 14:29N 51°16' E 004°24'0 0.0
2017-Sep-16 13:59N 51°16' E 004°24'0 0.0
2017-Sep-16 13:29N 51°16' E 004°24'0 0.0
2017-Sep-16 12:59N 51°16' E 004°24'0 0.0
2017-Sep-16 12:29N 51°16' E 004°24'0 0.0
2017-Sep-16 11:59N 51°16' E 004°24'0 0.0
2017-Sep-16 11:29N 51°16' E 004°24'0 0.0
2017-Sep-16 10:59N 51°16' E 004°24'0 0.0
2017-Sep-16 10:29N 51°16' E 004°24'0 0.0
2017-Sep-16 09:59N 51°16' E 004°24'0 0.0
2017-Sep-16 09:29N 51°16' E 004°24'0 0.0
2017-Sep-16 08:59N 51°16' E 004°24'0 0.0
2017-Sep-16 08:29N 51°16' E 004°24'0 0.0
2017-Sep-16 07:59N 51°16' E 004°24'0 0.0
2017-Sep-16 07:29N 51°16' E 004°24'0 0.0
2017-Sep-16 06:59N 51°16' E 004°24'0 0.0
2017-Sep-16 06:29N 51°16' E 004°24'0 0.0
2017-Sep-16 05:59N 51°16' E 004°24'0 0.0
2017-Sep-16 05:29N 51°16' E 004°24'0 0.2
2017-Sep-16 05:00N 51°16' E 004°23'2 4.6
2017-Sep-16 04:31N 51°17' E 004°20'4 7.9
2017-Sep-16 04:01N 51°21' E 004°18'0 0.7
2017-Sep-16 03:31N 51°21' E 004°17'0 0.1
2017-Sep-16 03:00N 51°21' E 004°17'3 6.2
2017-Sep-16 02:30N 51°22' E 004°13'4 8.1
2017-Sep-16 02:00N 51°22' E 004°07'5 9.2
2017-Sep-16 01:30N 51°26' E 004°01'5 9.1
2017-Sep-16 01:00N 51°23' E 003°56'510.5
2017-Sep-16 00:30N 51°21' E 003°48'611.1
2017-Sep-16 00:00N 51°24' E 003°41'510.0
2017-Sep-15 23:30N 51°26' E 003°34'510.0
2017-Sep-15 23:00N 51°30' E 003°28'510.5
2017-Sep-15 22:30N 51°35' E 003°24'611.8
2017-Sep-15 22:00N 51°40' E 003°19'610.4
2017-Sep-15 21:28N 51°45' E 003°15'5 9.4
2017-Sep-15 20:55N 51°49' E 003°20'2 5.3
2017-Sep-15 20:28N 51°50' E 003°24'0 0.0
2017-Sep-15 12:37N 51°50' E 003°24'0 0.1
2017-Sep-15 12:28N 51°50' E 003°24'0 0.0
2017-Sep-15 11:57N 51°50' E 003°24'0 0.0
2017-Sep-15 11:28N 51°50' E 003°24'0 0.0
2017-Sep-15 10:53N 51°50' E 003°24'0 0.0
2017-Sep-15 10:30N 51°50' E 003°24'0 0.0
2017-Sep-15 09:59N 51°50' E 003°24'0 0.0
2017-Sep-15 09:24N 51°50' E 003°24'0 0.0
2017-Sep-15 09:00N 51°50' E 003°24'0 0.0
2017-Sep-15 08:28N 51°50' E 003°24'0 0.1
2017-Sep-15 07:59N 51°50' E 003°24'0 0.0
2017-Sep-15 07:30N 51°50' E 003°24'0 0.1
2017-Sep-15 05:14N 51°50' E 003°24'0 0.1
2017-Sep-15 04:58N 51°50' E 003°24'0 0.0
2017-Sep-15 04:30N 51°50' E 003°24'0 0.0
2017-Sep-15 03:58N 51°50' E 003°24'0 0.0
2017-Sep-15 03:30N 51°50' E 003°24'0 0.0
2017-Sep-15 03:00N 51°50' E 003°24'0 0.0
2017-Sep-15 02:30N 51°50' E 003°24'0 0.0
2017-Sep-15 02:00N 51°50' E 003°24'0 0.0
2017-Sep-15 01:30N 51°50' E 003°24'0 0.1
2017-Sep-15 00:57N 51°50' E 003°24'1 2.2
2017-Sep-15 00:30N 51°50' E 003°23'5 7.5
2017-Sep-14 23:50N 51°55' E 003°19'412.2
2017-Sep-14 23:29N 51°59' E 003°19'1010.1
2017-Sep-14 22:28N 52°03' E 003°34'511.0
2017-Sep-14 22:00N 52°04' E 003°43'510.5
2017-Sep-14 21:30N 52°03' E 003°51'5 9.9
2017-Sep-14 21:01N 52°01' E 003°58'510.1
2017-Sep-14 20:31N 51°59' E 004°05'2 2.7
2017-Sep-14 19:56N 51°58' E 004°03'0 0.0
2017-Sep-14 19:29N 51°58' E 004°03'0 0.0
2017-Sep-14 18:59N 51°58' E 004°03'0 0.0
2017-Sep-14 18:29N 51°58' E 004°03'0 0.0
2017-Sep-14 17:59N 51°58' E 004°03'0 0.0
2017-Sep-14 17:29N 51°58' E 004°03'0 0.0
2017-Sep-14 16:59N 51°58' E 004°03'0 0.0
2017-Sep-14 16:29N 51°58' E 004°03'0 0.0
2017-Sep-14 15:59N 51°58' E 004°03'0 0.0
2017-Sep-14 15:29N 51°58' E 004°03'0 0.0
2017-Sep-14 14:59N 51°58' E 004°03'0 0.0
2017-Sep-14 14:29N 51°58' E 004°03'0 0.0
2017-Sep-14 13:59N 51°58' E 004°03'0 0.0
2017-Sep-14 13:29N 51°58' E 004°03'0 0.0
2017-Sep-14 13:01N 51°58' E 004°03'0 0.0
2017-Sep-14 12:31N 51°58' E 004°03'0 0.0
2017-Sep-14 12:01N 51°58' E 004°03'  

Dump ship's entire track history